createdAt,value
2023-05-21T00:02:17.518Z,61.66
2023-05-21T00:04:44.904Z,62.10
2023-05-21T00:07:11.652Z,62.05
2023-05-21T00:09:38.592Z,62.22
2023-05-21T00:12:06.519Z,62.17
2023-05-21T00:14:33.370Z,62.67
2023-05-21T00:16:59.844Z,63.37
2023-05-21T00:19:27.220Z,62.80
2023-05-21T00:21:54.760Z,62.97
2023-05-21T00:24:21.297Z,63.23
2023-05-21T00:26:47.825Z,63.42
2023-05-21T00:29:14.421Z,63.95
2023-05-21T00:31:41.022Z,64.30
2023-05-21T00:34:07.575Z,63.50
2023-05-21T00:36:34.743Z,63.38
2023-05-21T00:39:02.361Z,63.67
2023-05-21T00:41:30.177Z,63.40
2023-05-21T00:44:00.269Z,63.39
2023-05-21T00:46:28.541Z,64.07
2023-05-21T00:48:55.117Z,63.87
2023-05-21T00:51:21.971Z,63.94
2023-05-21T00:53:51.371Z,63.85
2023-05-21T00:56:19.550Z,63.90
2023-05-21T00:58:46.267Z,64.04
2023-05-21T01:01:14.013Z,64.66
2023-05-21T01:03:41.070Z,64.23
2023-05-21T01:06:09.043Z,63.73
2023-05-21T01:08:38.941Z,64.12
2023-05-21T01:11:06.906Z,64.41
2023-05-21T01:13:37.026Z,64.58
2023-05-21T01:16:06.566Z,64.77
2023-05-21T01:18:35.230Z,65.13
2023-05-21T01:21:02.420Z,65.00
2023-05-21T01:23:29.280Z,64.44
2023-05-21T01:25:56.068Z,64.53
2023-05-21T01:28:22.555Z,64.53
2023-05-21T01:30:49.077Z,64.20
2023-05-21T01:33:18.902Z,64.00
2023-05-21T01:35:51.843Z,63.78
2023-05-21T01:38:48.125Z,63.95
2023-05-21T01:41:18.352Z,63.93
2023-05-21T01:43:46.545Z,63.44
2023-05-21T01:46:16.548Z,63.09
2023-05-21T01:48:43.962Z,63.10
2023-05-21T01:51:10.776Z,63.35
2023-05-21T01:53:40.615Z,63.37
2023-05-21T01:56:07.770Z,63.01
2023-05-21T01:58:34.453Z,62.53
2023-05-21T02:01:00.968Z,62.37
2023-05-21T02:03:28.535Z,62.60
2023-05-21T02:05:55.765Z,62.48
2023-05-21T02:08:23.270Z,61.93
2023-05-21T02:10:50.261Z,62.47
2023-05-21T02:13:20.378Z,62.90
2023-05-21T02:15:47.273Z,63.00
2023-05-21T02:18:16.634Z,63.12
2023-05-21T02:20:43.697Z,63.25
2023-05-21T02:23:10.207Z,63.08
2023-05-21T02:25:37.103Z,63.34
2023-05-21T02:28:04.148Z,63.00
2023-05-21T02:30:30.911Z,62.47
2023-05-21T02:32:59.106Z,62.01
2023-05-21T02:35:26.041Z,61.79
2023-05-21T02:37:52.574Z,61.61
2023-05-21T02:40:19.178Z,61.12
2023-05-21T02:42:45.754Z,60.94
2023-05-21T02:45:12.988Z,60.57
2023-05-21T02:47:39.705Z,60.56
2023-05-21T02:50:07.805Z,60.15
2023-05-21T02:52:34.431Z,60.25
2023-05-21T02:55:01.227Z,59.99
2023-05-21T02:57:27.796Z,60.55
2023-05-21T02:59:54.376Z,61.03
2023-05-21T03:02:21.027Z,60.70
2023-05-21T03:04:47.871Z,60.20
2023-05-21T03:07:15.506Z,60.25
2023-05-21T03:09:42.577Z,60.52
2023-05-21T03:12:10.037Z,60.47
2023-05-21T03:14:36.850Z,61.27
2023-05-21T03:17:06.123Z,60.73
2023-05-21T03:19:36.806Z,61.50
2023-05-21T03:22:04.571Z,61.70
2023-05-21T03:24:31.767Z,62.14
2023-05-21T03:26:59.285Z,63.12
2023-05-21T03:29:25.857Z,63.32
2023-05-21T03:31:53.923Z,64.12
2023-05-21T03:34:20.830Z,63.63
2023-05-21T03:36:47.934Z,63.71
2023-05-21T03:39:15.071Z,63.92
2023-05-21T03:41:42.343Z,63.56
2023-05-21T03:44:09.021Z,64.04
2023-05-21T03:46:36.062Z,63.92
2023-05-21T03:49:02.785Z,63.79
2023-05-21T03:51:30.619Z,63.26
2023-05-21T03:54:00.274Z,63.39
2023-05-21T03:56:26.849Z,63.31
2023-05-21T03:58:53.341Z,62.90
2023-05-21T04:01:20.010Z,63.23
2023-05-21T04:03:47.060Z,62.90
2023-05-21T04:06:13.771Z,62.95
2023-05-21T04:08:40.266Z,62.86
2023-05-21T04:11:06.861Z,62.59
2023-05-21T04:13:33.344Z,62.09
2023-05-21T04:15:59.986Z,62.30
2023-05-21T04:18:26.851Z,61.91
2023-05-21T04:20:53.837Z,61.61
2023-05-21T04:23:23.546Z,61.91
2023-05-21T04:25:50.929Z,62.06
2023-05-21T04:28:21.066Z,61.32
2023-05-21T04:30:48.033Z,61.20
2023-05-21T04:33:18.205Z,60.48
2023-05-21T04:35:47.380Z,60.66
2023-05-21T04:38:14.232Z,60.12
2023-05-21T04:40:40.951Z,59.53
2023-05-21T04:43:08.261Z,59.35
2023-05-21T04:45:35.211Z,59.26
2023-05-21T04:48:02.765Z,59.92
2023-05-21T04:50:31.963Z,58.79
2023-05-21T04:52:59.633Z,58.34
2023-05-21T04:55:27.484Z,57.21
2023-05-21T04:57:54.047Z,57.71
2023-05-21T05:00:21.444Z,57.24
2023-05-21T05:02:48.018Z,57.38
2023-05-21T05:05:14.783Z,56.43
2023-05-21T05:07:41.633Z,55.87
2023-05-21T05:10:08.432Z,55.75
2023-05-21T05:12:35.206Z,55.07
2023-05-21T05:15:01.951Z,55.39
2023-05-21T05:17:28.678Z,55.81
2023-05-21T05:19:55.283Z,53.77
2023-05-21T05:22:21.819Z,54.11
2023-05-21T05:24:48.476Z,53.75
2023-05-21T05:27:15.119Z,53.64
2023-05-21T05:29:41.710Z,52.65
2023-05-21T05:32:08.308Z,52.33
2023-05-21T05:34:34.997Z,51.01
2023-05-21T05:37:02.910Z,49.79
2023-05-21T05:39:29.435Z,47.63
2023-05-21T05:41:56.006Z,45.36
2023-05-21T05:44:22.528Z,45.02
2023-05-21T05:46:49.123Z,42.43
2023-05-21T05:49:15.750Z,40.54
2023-05-21T05:51:42.465Z,39.31
2023-05-21T05:54:09.031Z,36.72
2023-05-21T05:56:35.598Z,35.95
2023-05-21T05:59:02.132Z,36.75
2023-05-21T06:01:28.754Z,35.80
2023-05-21T06:03:55.328Z,35.86
2023-05-21T06:06:21.949Z,34.93
2023-05-21T06:08:48.710Z,34.85
2023-05-21T06:11:19.182Z,34.80
2023-05-21T06:13:46.221Z,35.29
2023-05-21T06:16:12.940Z,34.58
2023-05-21T06:18:39.588Z,33.90
2023-05-21T06:21:06.473Z,33.38
2023-05-21T06:23:33.285Z,33.32
2023-05-21T06:25:59.926Z,33.18
2023-05-21T06:28:26.656Z,32.94
2023-05-21T06:30:53.518Z,31.85
2023-05-21T06:33:20.213Z,30.84
2023-05-21T06:35:46.956Z,31.24
2023-05-21T06:38:13.695Z,30.31
2023-05-21T06:40:40.457Z,29.55
2023-05-21T06:43:07.328Z,31.94
2023-05-21T06:45:34.135Z,32.87
2023-05-21T06:48:00.859Z,31.80
2023-05-21T06:50:27.762Z,30.59
2023-05-21T06:52:54.614Z,29.80
2023-05-21T06:55:21.355Z,30.21
2023-05-21T06:57:47.935Z,30.31
2023-05-21T07:00:15.005Z,31.92
2023-05-21T07:02:41.620Z,31.74
2023-05-21T07:05:08.871Z,31.57
2023-05-21T07:07:35.393Z,32.40
2023-05-21T07:10:01.954Z,31.09
2023-05-21T07:12:28.488Z,30.83
2023-05-21T07:14:55.788Z,29.43
2023-05-21T07:17:23.660Z,28.96
2023-05-21T07:19:50.347Z,29.13
2023-05-21T07:22:16.851Z,29.40
2023-05-21T07:24:43.410Z,29.99
2023-05-21T07:27:24.849Z,30.06
2023-05-21T07:29:52.593Z,30.86
2023-05-21T07:32:19.165Z,31.25
2023-05-21T07:34:45.743Z,32.01
2023-05-21T07:37:12.953Z,33.63
2023-05-21T07:39:39.957Z,34.12
2023-05-21T07:42:06.498Z,34.51
2023-05-21T07:44:33.111Z,34.56
2023-05-21T07:46:59.726Z,34.67
2023-05-21T07:49:26.287Z,33.77
2023-05-21T07:51:52.804Z,34.82
2023-05-21T07:54:19.809Z,35.29
2023-05-21T07:56:46.658Z,35.69
2023-05-21T07:59:14.528Z,35.46
2023-05-21T08:01:41.183Z,33.86
2023-05-21T08:04:07.936Z,33.93
2023-05-21T08:06:34.889Z,33.96
2023-05-21T08:09:06.365Z,35.18
2023-05-21T08:11:33.355Z,35.59
2023-05-21T08:14:00.355Z,35.27
2023-05-21T08:16:27.089Z,35.86
2023-05-21T08:18:53.905Z,36.30
2023-05-21T08:21:20.968Z,36.32
2023-05-21T08:23:47.632Z,35.46
2023-05-21T08:26:16.528Z,35.21
2023-05-21T08:28:43.428Z,35.29
2023-05-21T08:31:10.333Z,33.37
2023-05-21T08:33:39.878Z,33.35
2023-05-21T08:36:06.941Z,32.80
2023-05-21T08:38:36.916Z,31.62
2023-05-21T08:41:05.236Z,32.21
2023-05-21T08:43:31.866Z,31.84
2023-05-21T08:46:00.746Z,31.62
2023-05-21T08:48:27.358Z,31.37
2023-05-21T08:50:54.852Z,31.38
2023-05-21T08:53:28.549Z,31.64
2023-05-21T08:55:56.328Z,32.32
2023-05-21T08:58:23.027Z,31.81
2023-05-21T09:00:49.800Z,30.84
2023-05-21T09:03:16.685Z,31.01
2023-05-21T09:05:44.556Z,31.11
2023-05-21T09:08:15.279Z,30.70
2023-05-21T09:10:52.070Z,29.99
2023-05-21T09:13:19.530Z,30.63
2023-05-21T09:15:47.035Z,31.23
2023-05-21T09:18:14.430Z,30.78
2023-05-21T09:20:41.317Z,30.80
2023-05-21T09:23:16.982Z,31.23
2023-05-21T09:25:47.759Z,31.96
2023-05-21T09:28:15.835Z,32.53
2023-05-21T09:30:52.268Z,29.76
2023-05-21T09:33:26.288Z,30.59
2023-05-21T09:35:53.047Z,32.02
2023-05-21T09:38:22.568Z,30.64
2023-05-21T09:40:49.347Z,30.92
2023-05-21T09:43:16.468Z,29.61
2023-05-21T09:45:53.457Z,32.14
2023-05-21T09:48:42.107Z,31.58
2023-05-21T09:51:12.774Z,32.07
2023-05-21T09:53:48.809Z,32.12
2023-05-21T09:56:16.972Z,33.43
2023-05-21T09:58:43.965Z,31.76
2023-05-21T10:01:11.149Z,32.59
2023-05-21T10:03:40.070Z,33.35
2023-05-21T10:06:09.317Z,31.99
2023-05-21T10:08:37.466Z,32.49
2023-05-21T10:11:06.003Z,31.94
2023-05-21T10:13:34.579Z,32.86
2023-05-21T10:16:03.237Z,32.17
2023-05-21T10:18:31.068Z,33.19
2023-05-21T10:20:59.022Z,32.29
2023-05-21T10:23:26.113Z,33.55
2023-05-21T10:25:53.069Z,33.27
2023-05-21T10:28:20.455Z,34.22
2023-05-21T10:30:47.180Z,33.59
2023-05-21T10:33:19.238Z,32.33
2023-05-21T10:35:48.203Z,32.37
2023-05-21T10:38:15.827Z,32.38
2023-05-21T10:40:42.381Z,32.77
2023-05-21T10:43:18.036Z,32.89
2023-05-21T10:46:20.034Z,34.00
2023-05-21T10:49:11.719Z,33.26
2023-05-21T10:51:50.832Z,33.06
2023-05-21T10:54:36.135Z,33.39
2023-05-21T10:57:13.329Z,34.75
2023-05-21T10:59:43.542Z,33.03
2023-05-21T11:02:11.907Z,32.80
2023-05-21T11:04:39.994Z,33.37
2023-05-21T11:07:06.855Z,33.73
2023-05-21T11:09:33.393Z,33.60
2023-05-21T11:12:00.866Z,32.67
2023-05-21T11:14:35.671Z,32.33
2023-05-21T11:17:03.311Z,33.70
2023-05-21T11:19:36.133Z,32.30
2023-05-21T11:22:07.735Z,31.83
2023-05-21T11:24:37.471Z,31.47
2023-05-21T11:27:05.053Z,31.52
2023-05-21T11:29:33.498Z,32.30
2023-05-21T11:32:05.554Z,32.16
2023-05-21T11:34:52.383Z,33.12
2023-05-21T11:37:18.974Z,32.51
2023-05-21T11:39:45.637Z,32.51
2023-05-21T11:42:12.442Z,32.26
2023-05-21T11:44:46.427Z,31.43
2023-05-21T11:47:21.516Z,31.51
2023-05-21T11:49:49.445Z,30.75
2023-05-21T11:52:16.050Z,31.62
2023-05-21T11:54:46.303Z,32.57
2023-05-21T11:57:17.244Z,32.15
2023-05-21T11:59:44.788Z,31.75
2023-05-21T12:02:16.549Z,30.88
2023-05-21T12:04:43.341Z,31.80
2023-05-21T12:07:11.047Z,30.76
2023-05-21T12:09:49.268Z,30.81
2023-05-21T12:12:21.460Z,29.98
2023-05-21T12:14:52.260Z,31.05
2023-05-21T12:17:23.157Z,30.58
2023-05-21T12:19:52.136Z,30.16
2023-05-21T12:22:18.963Z,30.87
2023-05-21T12:24:46.277Z,31.97
2023-05-21T12:27:13.513Z,30.50
2023-05-21T12:29:42.680Z,30.97
2023-05-21T12:32:13.890Z,31.09
2023-05-21T12:34:48.789Z,30.29
2023-05-21T12:37:22.522Z,30.07
2023-05-21T12:39:50.964Z,29.17
2023-05-21T12:42:23.758Z,29.44
2023-05-21T12:44:52.673Z,30.05
2023-05-21T12:47:19.361Z,29.51
2023-05-21T12:49:48.211Z,29.27
2023-05-21T12:52:15.984Z,29.36
2023-05-21T12:54:45.278Z,29.02
2023-05-21T12:57:16.140Z,29.38
2023-05-21T12:59:46.789Z,29.82
2023-05-21T13:02:23.985Z,29.02
2023-05-21T13:05:04.642Z,29.53
2023-05-21T13:07:32.524Z,29.42
2023-05-21T13:10:00.294Z,29.16
2023-05-21T13:12:28.141Z,28.19
2023-05-21T13:14:59.143Z,28.76
2023-05-21T13:17:27.355Z,28.58
2023-05-21T13:20:15.278Z,29.57
2023-05-21T13:22:45.166Z,29.47
2023-05-21T13:25:12.293Z,30.29
2023-05-21T13:27:39.555Z,29.65
2023-05-21T13:30:07.069Z,29.93
2023-05-21T13:32:34.161Z,29.96
2023-05-21T13:35:00.959Z,30.62
2023-05-21T13:37:27.871Z,30.82
2023-05-21T13:39:54.816Z,31.12
2023-05-21T13:42:21.557Z,31.91
2023-05-21T13:44:48.419Z,31.21
2023-05-21T13:47:15.214Z,31.76
2023-05-21T13:49:42.364Z,30.61
2023-05-21T13:52:09.381Z,29.88
2023-05-21T13:54:36.860Z,29.69
2023-05-21T13:57:04.308Z,29.39
2023-05-21T13:59:33.452Z,29.02
2023-05-21T14:02:00.927Z,28.78
2023-05-21T14:04:27.734Z,28.28
2023-05-21T14:06:54.362Z,27.40
2023-05-21T14:10:18.052Z,28.05
2023-05-21T14:12:46.023Z,27.36
2023-05-21T14:15:12.809Z,27.69
2023-05-21T14:17:40.337Z,27.88
2023-05-21T14:20:07.773Z,27.15
2023-05-21T14:22:34.306Z,27.21
2023-05-21T14:25:01.188Z,27.12
2023-05-21T14:27:27.731Z,26.52
2023-05-21T14:29:54.252Z,26.56
2023-05-21T14:32:21.021Z,26.65
2023-05-21T14:34:47.573Z,27.46
2023-05-21T14:37:14.125Z,28.10
2023-05-21T14:39:40.746Z,28.33
2023-05-21T14:42:07.242Z,28.87
2023-05-21T14:44:33.831Z,27.75
2023-05-21T14:47:00.412Z,28.09
2023-05-21T14:49:26.924Z,27.96
2023-05-21T14:51:53.501Z,29.50
2023-05-21T14:54:20.030Z,27.88
2023-05-21T14:56:46.671Z,27.72
2023-05-21T14:59:14.294Z,26.80
2023-05-21T15:01:40.909Z,26.49
2023-05-21T15:04:08.133Z,27.51
2023-05-21T15:06:34.908Z,27.20
2023-05-21T15:09:01.538Z,27.18
2023-05-21T15:11:28.176Z,27.34
2023-05-21T15:13:54.748Z,27.47
2023-05-21T15:16:21.330Z,27.84
2023-05-21T15:18:48.042Z,27.06
2023-05-21T15:21:14.790Z,27.40
2023-05-21T15:23:42.118Z,27.20
2023-05-21T15:26:09.233Z,28.99
2023-05-21T15:28:35.983Z,27.70
2023-05-21T15:31:02.779Z,26.89
2023-05-21T15:33:29.553Z,26.52
2023-05-21T15:35:56.196Z,27.04
2023-05-21T15:38:22.874Z,27.50
2023-05-21T15:40:49.488Z,27.10
2023-05-21T15:43:16.195Z,26.76
2023-05-21T15:45:42.935Z,26.38
2023-05-21T15:48:09.876Z,27.02
2023-05-21T15:50:37.670Z,27.08
2023-05-21T15:53:04.837Z,27.80
2023-05-21T15:55:34.701Z,28.75
2023-05-21T15:58:03.298Z,28.39
2023-05-21T16:00:29.938Z,28.69
2023-05-21T16:02:56.738Z,29.35
2023-05-21T16:05:23.329Z,28.97
2023-05-21T16:07:50.254Z,28.21
2023-05-21T16:10:17.001Z,27.82
2023-05-21T16:12:43.569Z,28.29
2023-05-21T16:15:10.834Z,28.64
2023-05-21T16:17:37.547Z,27.48
2023-05-21T16:20:04.605Z,28.60
2023-05-21T16:22:31.440Z,28.74
2023-05-21T16:24:58.121Z,28.63
2023-05-21T16:27:25.156Z,29.62
2023-05-21T16:29:51.759Z,29.25
2023-05-21T16:32:18.483Z,30.00
2023-05-21T16:34:45.134Z,29.85
2023-05-21T16:37:11.778Z,29.61
2023-05-21T16:39:38.454Z,29.59
2023-05-21T16:42:05.075Z,29.73
2023-05-21T16:44:32.207Z,30.18
2023-05-21T16:46:59.432Z,30.21
2023-05-21T16:49:26.725Z,30.21
2023-05-21T16:51:53.429Z,30.10
2023-05-21T16:54:19.997Z,30.60
2023-05-21T16:56:46.528Z,30.83
2023-05-21T16:59:13.156Z,31.08
2023-05-21T17:01:39.790Z,32.04
2023-05-21T17:04:06.429Z,31.72
2023-05-21T17:06:34.033Z,31.80
2023-05-21T17:09:00.537Z,32.36
2023-05-21T17:11:27.152Z,31.98
2023-05-21T17:13:53.726Z,32.37
2023-05-21T17:16:20.417Z,32.36
2023-05-21T17:18:46.968Z,32.50
2023-05-21T17:21:13.776Z,32.78
2023-05-21T17:23:42.766Z,32.89
2023-05-21T17:26:09.747Z,33.15
2023-05-21T17:28:36.658Z,33.93
2023-05-21T17:31:03.364Z,33.11
2023-05-21T17:33:30.269Z,33.42
2023-05-21T17:35:57.162Z,33.32
2023-05-21T17:38:23.787Z,33.55
2023-05-21T17:40:50.656Z,33.41
2023-05-21T17:43:17.762Z,33.36
2023-05-21T17:45:44.492Z,33.49
2023-05-21T17:48:11.947Z,33.57
2023-05-21T17:50:38.789Z,33.94
2023-05-21T17:53:05.349Z,34.07
2023-05-21T17:55:31.933Z,34.16
2023-05-21T17:57:58.908Z,35.12
2023-05-21T18:00:25.809Z,34.65
2023-05-21T18:02:52.384Z,34.90
2023-05-21T18:05:18.996Z,34.92
2023-05-21T18:07:45.884Z,35.94
2023-05-21T18:10:12.607Z,35.37
2023-05-21T18:12:39.489Z,35.92
2023-05-21T18:15:06.711Z,35.40
2023-05-21T18:17:33.346Z,36.04
2023-05-21T18:20:00.066Z,35.99
2023-05-21T18:22:26.748Z,35.86
2023-05-21T18:24:53.248Z,36.23
2023-05-21T18:27:19.995Z,36.17
2023-05-21T18:29:48.966Z,36.39
2023-05-21T18:32:16.705Z,36.40
2023-05-21T18:34:44.103Z,37.13
2023-05-21T18:37:10.949Z,36.97
2023-05-21T18:39:37.476Z,37.84
2023-05-21T18:42:12.865Z,38.58
2023-05-21T18:44:40.775Z,38.42
2023-05-21T18:47:08.240Z,38.79
2023-05-21T18:49:36.062Z,38.78
2023-05-21T18:52:03.887Z,39.78
2023-05-21T18:54:30.903Z,40.04
2023-05-21T18:57:00.155Z,39.57
2023-05-21T18:59:28.167Z,40.07
2023-05-21T19:01:55.032Z,39.27
2023-05-21T19:04:21.681Z,39.77
2023-05-21T19:06:48.442Z,39.31
2023-05-21T19:09:15.120Z,40.64
2023-05-21T19:11:41.638Z,40.65
2023-05-21T19:14:08.236Z,40.60
2023-05-21T19:16:34.786Z,42.83
2023-05-21T19:19:02.006Z,41.32
2023-05-21T19:21:28.671Z,41.87
2023-05-21T19:23:55.223Z,41.69
2023-05-21T19:26:22.761Z,42.41
2023-05-21T19:28:53.285Z,41.28
2023-05-21T19:31:20.566Z,41.44
2023-05-21T19:33:47.149Z,42.47
2023-05-21T19:36:14.266Z,42.44
2023-05-21T19:38:50.640Z,42.84
2023-05-21T19:41:18.112Z,44.07
2023-05-21T19:43:45.228Z,43.96
2023-05-21T19:46:11.938Z,44.12
2023-05-21T19:48:39.029Z,45.15
2023-05-21T19:51:05.708Z,45.72
2023-05-21T19:53:32.233Z,45.77
2023-05-21T19:55:58.726Z,45.90
2023-05-21T19:58:26.917Z,46.67
2023-05-21T20:00:58.308Z,46.99
2023-05-21T20:03:26.492Z,46.68
2023-05-21T20:05:53.380Z,46.61
2023-05-21T20:08:20.475Z,45.77
2023-05-21T20:10:49.558Z,47.21
2023-05-21T20:13:18.102Z,48.61
2023-05-21T20:15:44.622Z,50.07
2023-05-21T20:18:12.747Z,50.68
2023-05-21T20:20:40.789Z,51.50
2023-05-21T20:23:07.996Z,51.63
2023-05-21T20:25:34.528Z,51.59
2023-05-21T20:28:01.500Z,51.58
2023-05-21T20:30:34.391Z,53.70
2023-05-21T20:33:02.151Z,53.95
2023-05-21T20:35:29.147Z,53.77
2023-05-21T20:37:55.982Z,53.82
2023-05-21T20:40:22.645Z,54.05
2023-05-21T20:42:51.863Z,53.62
2023-05-21T20:45:18.771Z,53.06
2023-05-21T20:47:45.508Z,53.20
2023-05-21T20:50:12.192Z,54.75
2023-05-21T20:52:38.983Z,54.53
2023-05-21T20:55:06.050Z,54.41
2023-05-21T20:57:32.618Z,55.19
2023-05-21T20:59:59.220Z,54.65
2023-05-21T21:02:25.842Z,54.73
2023-05-21T21:04:53.782Z,54.88
2023-05-21T21:07:20.461Z,55.73
2023-05-21T21:09:48.220Z,54.82
2023-05-21T21:12:25.878Z,55.89
2023-05-21T21:14:53.666Z,55.40
2023-05-21T21:17:20.569Z,55.52
2023-05-21T21:19:47.300Z,55.58
2023-05-21T21:22:14.922Z,56.29
2023-05-21T21:24:41.681Z,56.78
2023-05-21T21:27:08.457Z,57.02
2023-05-21T21:29:35.062Z,56.89
2023-05-21T21:32:01.659Z,55.87
2023-05-21T21:34:28.422Z,56.25
2023-05-21T21:36:54.968Z,57.64
2023-05-21T21:39:21.503Z,55.79
2023-05-21T21:41:48.014Z,55.50
2023-05-21T21:44:14.747Z,57.48
2023-05-21T21:46:41.251Z,56.07
2023-05-21T21:49:07.843Z,56.63
2023-05-21T21:51:34.925Z,57.33
2023-05-21T21:54:01.439Z,56.72
2023-05-21T21:56:29.382Z,57.26
2023-05-21T21:58:56.028Z,57.00
2023-05-21T22:01:22.621Z,57.35
2023-05-21T22:03:49.396Z,58.25
2023-05-21T22:06:16.074Z,58.15
2023-05-21T22:08:42.661Z,58.66
2023-05-21T22:11:09.214Z,59.41
2023-05-21T22:13:35.800Z,58.32
2023-05-21T22:16:02.684Z,58.61
2023-05-21T22:18:40.095Z,57.56
2023-05-21T22:21:11.036Z,57.96
2023-05-21T22:23:38.454Z,57.62
2023-05-21T22:26:05.254Z,59.50
2023-05-21T22:28:32.083Z,59.39
2023-05-21T22:30:59.125Z,60.61
2023-05-21T22:33:26.640Z,60.82
2023-05-21T22:35:54.210Z,61.68
2023-05-21T22:38:20.964Z,61.40
2023-05-21T22:40:47.550Z,62.09
2023-05-21T22:43:14.143Z,61.65
2023-05-21T22:45:40.664Z,61.18
2023-05-21T22:48:07.554Z,61.89
2023-05-21T22:50:34.364Z,62.52
2023-05-21T22:53:00.912Z,63.42
2023-05-21T22:55:27.447Z,62.73
2023-05-21T22:57:54.040Z,61.87
2023-05-21T23:00:20.717Z,61.69
2023-05-21T23:02:47.677Z,61.69
2023-05-21T23:05:14.591Z,63.99
2023-05-21T23:07:41.376Z,62.06
2023-05-21T23:10:08.856Z,62.80
2023-05-21T23:12:36.880Z,61.62
2023-05-21T23:15:04.876Z,62.17
2023-05-21T23:17:31.668Z,62.35
2023-05-21T23:19:59.365Z,62.57
2023-05-21T23:22:26.250Z,63.59
2023-05-21T23:24:54.181Z,62.27
2023-05-21T23:27:20.858Z,63.01
2023-05-21T23:29:47.456Z,62.81
2023-05-21T23:32:14.027Z,63.00
2023-05-21T23:34:41.904Z,63.47
2023-05-21T23:37:08.464Z,62.96
2023-05-21T23:39:35.038Z,64.51
2023-05-21T23:42:01.576Z,63.01
2023-05-21T23:44:28.048Z,63.19
2023-05-21T23:46:54.588Z,64.11
2023-05-21T23:49:21.091Z,64.25
2023-05-21T23:51:50.561Z,63.61
2023-05-21T23:54:17.489Z,64.03
2023-05-21T23:56:44.045Z,64.39
2023-05-21T23:59:10.924Z,64.96
